Pagina principale
METAR-TAF:

METAR-TAF

Aeroporti :

Aeroporto internazionale di Banja Luka

Banja Luka, Bosnia-Erzegovina

latitudine: 44-47N, longitudine: 017-13E, altezza: 156 m

Osservazione

Il bollettino è stato emesso 33 minuti fa, alle 04:00 UTC
Vento 2 kt da ovest/nord-ovest
Temperature 3°C
Umidità 81%
Pressione 1017 hPa
Visibilità 10 km o più
nessuna nube inferiore a 1500 m e nessun cumulonembo

METAR: LQBK 300400Z 29002KT CAVOK 03/00 Q1017 NOSIG

Ora: 06:33 (04:33 UTC)

Previsione

Il bollettino è stato emesso 5 ore e 33 minuti fa, alle 23:00 UTC
Previsione valida dal 30 alle 00 UTC al 30 alle 24 UTC
Vento 5 kt da nord/nord-ovest
Visibilità 10 km o più
Nubi sparse ad un'altezza di 4000 ft
Temporaneamente
dal 30 alle 02 UTC al 30 alle 24 UTC
Vento 10 kt da nord/nord-est
Probabilità 40% :
Temporaneamente
dal 30 alle 18 UTC al 30 alle 24 UTC
pioggia

TAF: LQBK 292300Z 3000/3024 33005KT 9999 SCT040 TX10/3014Z TN03/3024Z TEMPO 3002/3024 03010KT PROB40 TEMPO 3018/3024 RA

Osservazioni e previsioni meteorologiche di più di 4000 aeroporti (messaggi METAR e TAF).

Le stazioni disponibili sono rappresentate dai dischi gialli e rossi sulla carta.

Puntare il mouse per vedere il nome della stazione.

Clicca sopra per visualizzare le osservazioni e previsioni meteorologiche.

Per cambiare la mappa : fare clic sui pulsanti verdi con una croce nera per ingrandire, il pulsante verde con un trattino per diminuire, o sulla freccia verde per le mappe adiacenti.


METAR-TAF: